createdAt,value
2018-07-03T00:00:39.319Z,18.50
2018-07-03T00:03:07.977Z,18.40
2018-07-03T00:05:36.579Z,18.50
2018-07-03T00:08:05.204Z,18.50
2018-07-03T00:10:33.808Z,18.40
2018-07-03T00:13:02.412Z,18.40
2018-07-03T00:15:30.969Z,18.30
2018-07-03T00:17:59.561Z,18.20
2018-07-03T00:20:28.164Z,18.10
2018-07-03T00:22:56.747Z,18.10
2018-07-03T00:25:25.321Z,18.00
2018-07-03T00:27:53.933Z,17.90
2018-07-03T00:30:22.527Z,17.90
2018-07-03T00:32:51.112Z,18.00
2018-07-03T00:35:19.734Z,18.00
2018-07-03T00:37:48.334Z,17.90
2018-07-03T00:40:16.932Z,17.90
2018-07-03T00:42:45.858Z,17.90
2018-07-03T00:47:42.690Z,17.80
2018-07-03T00:50:11.252Z,17.90
2018-07-03T00:52:39.843Z,17.80
2018-07-03T00:55:08.404Z,17.70
2018-07-03T00:57:37.025Z,17.60
2018-07-03T01:00:16.649Z,17.60
2018-07-03T01:02:45.232Z,17.50
2018-07-03T01:05:13.866Z,17.70
2018-07-03T01:07:42.501Z,17.70
2018-07-03T01:10:11.046Z,17.60
2018-07-03T01:12:39.665Z,17.50
2018-07-03T01:15:08.257Z,17.40
2018-07-03T01:17:36.864Z,17.50
2018-07-03T01:20:05.477Z,17.50
2018-07-03T01:22:34.089Z,17.40
2018-07-03T01:25:02.673Z,17.40
2018-07-03T01:27:31.251Z,17.40
2018-07-03T01:30:00.745Z,17.50
2018-07-03T01:32:29.397Z,17.40
2018-07-03T01:34:57.968Z,17.50
2018-07-03T01:37:26.569Z,17.50
2018-07-03T01:39:55.204Z,17.50
2018-07-03T01:42:23.811Z,17.40
2018-07-03T01:44:52.476Z,17.40
2018-07-03T01:47:21.093Z,17.40
2018-07-03T01:49:49.719Z,17.30
2018-07-03T01:52:18.304Z,17.30
2018-07-03T01:54:46.907Z,17.20
2018-07-03T01:57:15.509Z,17.10
2018-07-03T01:59:44.108Z,17.10
2018-07-03T02:02:12.743Z,17.10
2018-07-03T02:04:41.436Z,17.10
2018-07-03T02:07:10.040Z,17.10
2018-07-03T02:09:38.635Z,16.90
2018-07-03T02:12:07.253Z,16.90
2018-07-03T02:14:35.842Z,16.90
2018-07-03T02:17:04.707Z,16.90
2018-07-03T02:19:33.295Z,16.90
2018-07-03T02:22:01.953Z,16.90
2018-07-03T02:24:30.571Z,16.90
2018-07-03T02:26:59.211Z,16.70
2018-07-03T02:29:27.789Z,16.70
2018-07-03T02:31:56.388Z,16.50
2018-07-03T02:34:24.965Z,16.50
2018-07-03T02:36:53.653Z,16.50
2018-07-03T02:39:22.307Z,16.40
2018-07-03T02:41:50.923Z,16.30
2018-07-03T02:44:19.625Z,16.30
2018-07-03T02:46:48.216Z,16.40
2018-07-03T02:49:16.804Z,16.30
2018-07-03T02:51:45.382Z,16.30
2018-07-03T02:54:13.977Z,16.30
2018-07-03T02:56:42.564Z,16.30
2018-07-03T02:59:11.118Z,16.20
2018-07-03T03:01:39.699Z,16.30
2018-07-03T03:04:08.280Z,16.10
2018-07-03T03:06:36.869Z,16.10
2018-07-03T03:09:08.645Z,16.10
2018-07-03T03:11:37.284Z,16.10
2018-07-03T03:14:05.898Z,16.00
2018-07-03T03:16:34.530Z,16.00
2018-07-03T03:19:03.113Z,16.00
2018-07-03T03:21:31.705Z,16.00
2018-07-03T03:24:00.293Z,16.10
2018-07-03T03:26:28.922Z,16.00
2018-07-03T03:28:57.502Z,16.00
2018-07-03T03:31:26.145Z,16.10
2018-07-03T03:33:54.735Z,16.00
2018-07-03T03:36:23.318Z,15.90
2018-07-03T03:38:51.900Z,15.90
2018-07-03T03:41:20.475Z,15.80
2018-07-03T03:43:49.069Z,15.80
2018-07-03T03:46:17.667Z,15.80
2018-07-03T03:48:46.281Z,15.80
2018-07-03T03:51:14.876Z,15.80
2018-07-03T03:53:43.507Z,15.80
2018-07-03T03:58:40.300Z,15.90
2018-07-03T04:01:08.925Z,16.00
2018-07-03T04:03:37.504Z,16.00
2018-07-03T04:06:06.121Z,16.10
2018-07-03T04:08:34.728Z,16.10
2018-07-03T04:11:03.285Z,16.10
2018-07-03T04:13:31.853Z,16.10
2018-07-03T04:16:00.427Z,16.10
2018-07-03T04:18:32.246Z,16.10
2018-07-03T04:21:01.589Z,16.10
2018-07-03T04:23:30.276Z,16.10
2018-07-03T04:25:59.442Z,16.10
2018-07-03T04:28:28.052Z,16.10
2018-07-03T04:30:56.656Z,16.20
2018-07-03T04:33:25.221Z,16.20
2018-07-03T04:35:53.769Z,16.10
2018-07-03T04:38:22.344Z,16.20
2018-07-03T04:40:50.904Z,16.10
2018-07-03T04:43:19.633Z,16.10
2018-07-03T04:45:48.205Z,16.10
2018-07-03T04:48:16.785Z,16.30
2018-07-03T04:50:46.704Z,16.20
2018-07-03T04:53:15.279Z,16.20
2018-07-03T04:55:43.865Z,16.20
2018-07-03T04:58:12.397Z,16.30
2018-07-03T05:00:41.010Z,16.40
2018-07-03T05:05:37.808Z,16.50
2018-07-03T05:08:06.429Z,16.50
2018-07-03T05:10:35.075Z,16.50
2018-07-03T05:13:03.641Z,16.50
2018-07-03T05:15:32.234Z,16.50
2018-07-03T05:18:00.864Z,16.60
2018-07-03T05:20:29.537Z,16.60
2018-07-03T05:22:58.081Z,16.80
2018-07-03T05:25:26.676Z,16.80
2018-07-03T05:27:55.233Z,16.90
2018-07-03T05:30:23.848Z,17.10
2018-07-03T05:32:52.416Z,17.10
2018-07-03T05:35:21.000Z,17.10
2018-07-03T05:37:49.618Z,17.10
2018-07-03T05:40:18.248Z,17.20
2018-07-03T05:42:46.845Z,17.20
2018-07-03T05:45:15.417Z,17.20
2018-07-03T05:47:44.006Z,17.20
2018-07-03T05:50:12.577Z,17.30
2018-07-03T05:52:41.157Z,17.40
2018-07-03T05:55:09.725Z,17.60
2018-07-03T05:57:38.304Z,17.70
2018-07-03T06:00:07.108Z,17.80
2018-07-03T06:02:35.686Z,18.40
2018-07-03T06:05:04.506Z,19.40
2018-07-03T06:07:32.905Z,20.60
2018-07-03T06:10:01.525Z,21.90
2018-07-03T06:12:30.109Z,23.00
2018-07-03T06:14:58.707Z,23.80
2018-07-03T06:17:27.312Z,24.40
2018-07-03T06:19:55.875Z,25.10
2018-07-03T06:22:24.479Z,25.80
2018-07-03T06:24:53.071Z,26.50
2018-07-03T06:27:21.700Z,26.60
2018-07-03T06:29:50.300Z,26.40
2018-07-03T06:54:22.864Z,23.10
2018-07-03T06:56:51.728Z,22.70
2018-07-03T06:59:20.336Z,22.30
2018-07-03T07:01:48.917Z,22.20
2018-07-03T07:04:17.519Z,22.20
2018-07-03T07:06:46.087Z,22.50
2018-07-03T07:09:14.880Z,22.70
2018-07-03T07:11:43.293Z,22.30
2018-07-03T07:14:12.024Z,22.70
2018-07-03T07:16:40.700Z,22.90
2018-07-03T07:19:09.396Z,23.00
2018-07-03T07:21:38.016Z,22.90
2018-07-03T07:24:06.640Z,22.90
2018-07-03T07:26:35.204Z,23.00
2018-07-03T07:29:03.811Z,23.10
2018-07-03T07:31:32.391Z,23.40
2018-07-03T07:34:00.993Z,23.50
2018-07-03T07:36:29.564Z,23.80
2018-07-03T07:38:58.143Z,23.80
2018-07-03T07:41:26.724Z,23.80
2018-07-03T07:43:55.261Z,23.30
2018-07-03T07:46:23.847Z,23.20
2018-07-03T07:48:52.411Z,23.90
2018-07-03T07:51:21.048Z,24.40
2018-07-03T07:53:49.649Z,24.30
2018-07-03T07:56:18.249Z,24.70
2018-07-03T07:58:46.828Z,24.00
2018-07-03T08:01:15.417Z,23.50
2018-07-03T08:03:44.079Z,24.20
2018-07-03T08:06:12.640Z,24.50
2018-07-03T08:08:41.236Z,24.50
2018-07-03T08:11:09.917Z,24.60
2018-07-03T08:13:38.619Z,24.90
2018-07-03T08:16:07.258Z,25.40
2018-07-03T08:18:35.847Z,25.20
2018-07-03T08:21:04.445Z,25.10
2018-07-03T08:23:33.036Z,25.00
2018-07-03T08:26:01.624Z,24.50
2018-07-03T08:28:30.201Z,24.70
2018-07-03T08:30:58.817Z,25.30
2018-07-03T08:33:27.434Z,25.00
2018-07-03T08:35:56.065Z,25.60
2018-07-03T08:38:24.659Z,25.20
2018-07-03T08:40:53.272Z,25.30
2018-07-03T08:43:21.830Z,25.80
2018-07-03T08:45:50.443Z,25.60
2018-07-03T08:48:19.075Z,25.60
2018-07-03T08:50:47.694Z,25.80
2018-07-03T08:53:16.275Z,26.00
2018-07-03T08:55:44.861Z,26.20
2018-07-03T08:58:13.473Z,26.60
2018-07-03T09:00:42.064Z,27.00
2018-07-03T09:03:10.739Z,27.00
2018-07-03T09:05:39.345Z,26.90
2018-07-03T09:08:08.013Z,26.80
2018-07-03T09:10:36.591Z,26.70
2018-07-03T09:13:05.216Z,26.30
2018-07-03T09:15:33.773Z,26.30
2018-07-03T09:18:02.445Z,26.90
2018-07-03T09:20:30.951Z,27.20
2018-07-03T09:22:59.551Z,27.50
2018-07-03T09:25:28.134Z,27.60
2018-07-03T09:27:56.718Z,27.60
2018-07-03T09:30:25.315Z,27.50
2018-07-03T09:32:53.912Z,27.40
2018-07-03T09:35:22.467Z,27.70
2018-07-03T09:37:51.109Z,27.70
2018-07-03T09:40:19.665Z,27.00
2018-07-03T09:42:48.280Z,27.10
2018-07-03T09:45:16.856Z,27.90
2018-07-03T09:47:45.445Z,28.40
2018-07-03T09:50:14.059Z,28.70
2018-07-03T09:52:42.635Z,28.90
2018-07-03T09:55:11.211Z,28.60
2018-07-03T09:57:39.837Z,28.50
2018-07-03T10:00:08.791Z,27.70
2018-07-03T10:02:37.357Z,28.10
2018-07-03T10:05:06.093Z,28.80
2018-07-03T10:07:34.707Z,28.90
2018-07-03T10:10:03.384Z,29.60
2018-07-03T10:12:31.951Z,29.40
2018-07-03T10:15:00.579Z,29.20
2018-07-03T10:17:29.237Z,28.80
2018-07-03T10:19:57.892Z,28.30
2018-07-03T10:22:26.472Z,29.10
2018-07-03T10:24:55.093Z,29.10
2018-07-03T10:27:23.701Z,28.50
2018-07-03T10:29:52.285Z,29.20
2018-07-03T10:32:20.875Z,29.20
2018-07-03T10:34:49.469Z,29.50
2018-07-03T10:37:18.101Z,29.20
2018-07-03T10:39:46.708Z,29.70
2018-07-03T10:42:15.267Z,29.70
2018-07-03T10:44:43.876Z,29.30
2018-07-03T10:47:12.508Z,28.80
2018-07-03T10:49:41.115Z,29.00
2018-07-03T10:52:09.700Z,28.90
2018-07-03T10:57:06.561Z,29.10
2018-07-03T10:59:35.230Z,29.60
2018-07-03T11:02:03.904Z,28.90
2018-07-03T11:04:32.529Z,29.60
2018-07-03T11:07:01.096Z,28.40
2018-07-03T11:11:57.980Z,29.40
2018-07-03T11:14:26.620Z,29.80
2018-07-03T11:16:55.221Z,30.10
2018-07-03T11:19:23.820Z,30.40
2018-07-03T11:21:52.441Z,29.50
2018-07-03T11:24:21.123Z,29.60
2018-07-03T11:26:49.773Z,29.80
2018-07-03T11:31:46.759Z,29.40
2018-07-03T11:34:15.345Z,29.50
2018-07-03T11:36:44.616Z,29.40
2018-07-03T11:39:13.538Z,29.40
2018-07-03T11:41:42.149Z,29.10
2018-07-03T11:44:10.711Z,29.70
2018-07-03T11:46:39.328Z,30.00
2018-07-03T11:49:07.900Z,29.90
2018-07-03T11:51:36.484Z,29.60
2018-07-03T11:54:05.064Z,29.90
2018-07-03T11:56:33.716Z,29.90
2018-07-03T11:59:02.320Z,29.30
2018-07-03T12:01:31.079Z,29.70
2018-07-03T12:03:59.627Z,29.60
2018-07-03T12:06:28.262Z,29.70
2018-07-03T12:08:56.870Z,28.80
2018-07-03T12:11:25.476Z,28.90
2018-07-03T12:13:54.187Z,29.20
2018-07-03T12:16:22.773Z,29.50
2018-07-03T12:18:56.731Z,29.20
2018-07-03T12:21:25.361Z,29.10
2018-07-03T12:23:53.989Z,29.00
2018-07-03T12:26:22.598Z,29.00
2018-07-03T12:28:51.300Z,29.10
2018-07-03T12:31:19.933Z,29.00
2018-07-03T12:33:48.547Z,28.70
2018-07-03T12:36:17.131Z,28.30
2018-07-03T12:38:45.748Z,28.40
2018-07-03T12:41:14.386Z,28.60
2018-07-03T12:43:43.205Z,28.10
2018-07-03T12:46:12.490Z,28.30
2018-07-03T12:48:41.456Z,28.20
2018-07-03T12:51:10.072Z,28.20
2018-07-03T12:53:39.055Z,27.90
2018-07-03T12:56:07.633Z,28.20
2018-07-03T12:58:36.288Z,28.20
2018-07-03T13:01:04.976Z,28.60
2018-07-03T13:03:33.684Z,28.10
2018-07-03T13:06:02.312Z,28.00
2018-07-03T13:08:30.952Z,28.10
2018-07-03T13:10:59.625Z,28.10
2018-07-03T13:13:28.229Z,28.50
2018-07-03T13:15:56.927Z,28.90
2018-07-03T13:18:25.538Z,29.50
2018-07-03T13:20:54.994Z,29.80
2018-07-03T13:23:24.982Z,29.50
2018-07-03T13:25:53.792Z,29.00
2018-07-03T13:28:22.405Z,29.60
2018-07-03T13:30:51.080Z,29.60
2018-07-03T13:33:19.697Z,29.90
2018-07-03T13:35:48.334Z,29.90
2018-07-03T13:38:16.945Z,29.90
2018-07-03T13:40:45.609Z,29.40
2018-07-03T13:43:14.272Z,28.90
2018-07-03T13:45:42.937Z,29.70
2018-07-03T13:48:11.573Z,30.00
2018-07-03T13:50:40.179Z,30.20
2018-07-03T13:53:08.854Z,30.00
2018-07-03T13:55:37.488Z,29.60
2018-07-03T13:58:06.572Z,29.90
2018-07-03T14:00:35.148Z,30.20
2018-07-03T14:03:03.732Z,30.20
2018-07-03T14:05:32.345Z,30.30
2018-07-03T14:08:00.891Z,29.80
2018-07-03T14:10:29.525Z,29.90
2018-07-03T14:12:58.119Z,30.20
2018-07-03T14:15:26.700Z,30.60
2018-07-03T14:17:55.673Z,30.40
2018-07-03T14:20:24.269Z,30.80
2018-07-03T14:22:52.923Z,31.10
2018-07-03T14:25:21.488Z,30.80
2018-07-03T14:27:50.072Z,30.50
2018-07-03T14:30:18.988Z,30.80
2018-07-03T14:32:47.607Z,30.90
2018-07-03T14:37:44.541Z,31.30
2018-07-03T14:40:13.116Z,31.30
2018-07-03T14:42:41.776Z,31.60
2018-07-03T14:45:10.422Z,31.60
2018-07-03T14:47:39.052Z,31.70
2018-07-03T14:50:07.679Z,31.60
2018-07-03T14:52:36.275Z,31.60
2018-07-03T14:57:33.109Z,31.50
2018-07-03T15:00:01.693Z,31.10
2018-07-03T15:02:30.381Z,30.80
2018-07-03T15:04:58.991Z,30.60
2018-07-03T15:07:27.562Z,30.80
2018-07-03T15:09:56.234Z,30.20
2018-07-03T15:12:24.789Z,30.50
2018-07-03T15:14:53.497Z,30.60
2018-07-03T15:17:22.036Z,30.90
2018-07-03T15:19:57.913Z,30.70
2018-07-03T15:22:26.504Z,30.50
2018-07-03T15:24:55.103Z,30.60
2018-07-03T15:27:23.665Z,31.00
2018-07-03T15:29:52.258Z,31.10
2018-07-03T15:32:20.817Z,30.50
2018-07-03T15:34:49.450Z,29.80
2018-07-03T15:37:18.102Z,29.70
2018-07-03T15:39:46.715Z,29.60
2018-07-03T15:42:15.338Z,29.70
2018-07-03T15:45:16.081Z,29.90
2018-07-03T15:47:44.684Z,30.10
2018-07-03T15:50:13.972Z,30.20
2018-07-03T15:52:42.602Z,30.20
2018-07-03T15:55:11.616Z,30.00
2018-07-03T15:57:40.198Z,29.70
2018-07-03T16:00:10.785Z,29.70
2018-07-03T16:02:43.528Z,29.80
2018-07-03T16:05:54.816Z,30.30
2018-07-03T16:08:34.708Z,30.10
2018-07-03T16:11:03.317Z,30.50
2018-07-03T16:13:31.873Z,30.30
2018-07-03T16:16:00.510Z,30.10
2018-07-03T16:18:29.085Z,30.50
2018-07-03T16:20:57.689Z,31.00
2018-07-03T16:23:26.244Z,31.70
2018-07-03T16:25:54.890Z,32.80
2018-07-03T16:28:23.450Z,33.90
2018-07-03T16:30:52.028Z,33.70
2018-07-03T16:33:20.625Z,34.10
2018-07-03T16:35:49.229Z,34.10
2018-07-03T16:38:17.828Z,34.40
2018-07-03T16:40:46.412Z,34.20
2018-07-03T16:43:14.971Z,34.70
2018-07-03T16:45:43.590Z,34.80
2018-07-03T16:48:12.211Z,33.80
2018-07-03T16:50:40.855Z,34.10
2018-07-03T16:53:09.402Z,34.10
2018-07-03T16:55:37.996Z,34.10
2018-07-03T16:58:06.595Z,34.40
2018-07-03T17:00:35.216Z,34.20
2018-07-03T17:03:03.810Z,34.00
2018-07-03T17:05:32.448Z,33.50
2018-07-03T17:08:01.021Z,33.30
2018-07-03T17:10:29.629Z,33.10
2018-07-03T17:12:58.231Z,32.90
2018-07-03T17:15:26.820Z,32.30
2018-07-03T17:17:55.440Z,32.10
2018-07-03T17:20:24.047Z,32.10
2018-07-03T17:22:52.697Z,32.20
2018-07-03T17:25:21.327Z,32.30
2018-07-03T17:27:49.913Z,31.70
2018-07-03T17:30:18.681Z,31.80
2018-07-03T17:32:47.274Z,31.90
2018-07-03T17:35:15.820Z,32.20
2018-07-03T17:37:44.413Z,32.40
2018-07-03T17:40:24.209Z,32.50
2018-07-03T17:44:07.364Z,32.70
2018-07-03T17:46:36.022Z,32.60
2018-07-03T17:49:05.058Z,31.70
2018-07-03T17:51:33.813Z,31.20
2018-07-03T17:54:02.400Z,30.90
2018-07-03T17:56:31.556Z,30.40
2018-07-03T17:59:00.385Z,29.90
2018-07-03T18:01:28.950Z,29.40
2018-07-03T18:03:57.509Z,28.90
2018-07-03T18:06:26.111Z,28.50
2018-07-03T18:08:54.787Z,27.70
2018-07-03T18:11:23.446Z,27.50
2018-07-03T18:13:52.859Z,27.30
2018-07-03T18:16:21.448Z,27.00
2018-07-03T18:18:55.364Z,26.60
2018-07-03T18:21:23.974Z,26.30
2018-07-03T18:23:52.611Z,25.90
2018-07-03T18:26:21.306Z,25.60
2018-07-03T18:28:49.911Z,25.30
2018-07-03T18:31:18.621Z,25.00
2018-07-03T18:33:47.244Z,24.80
2018-07-03T18:36:15.819Z,24.60
2018-07-03T18:38:45.009Z,24.60
2018-07-03T18:41:13.604Z,24.50
2018-07-03T18:43:42.329Z,24.30
2018-07-03T18:46:10.948Z,24.30
2018-07-03T18:48:39.580Z,24.20
2018-07-03T18:51:08.438Z,24.10
2018-07-03T18:53:37.365Z,23.90
2018-07-03T18:58:34.506Z,23.80
2018-07-03T19:01:03.188Z,23.60
2018-07-03T19:03:31.851Z,23.60
2018-07-03T19:06:00.445Z,23.50
2018-07-03T19:08:29.036Z,23.50
2018-07-03T19:10:57.700Z,23.40
2018-07-03T19:13:26.277Z,23.20
2018-07-03T19:15:54.878Z,23.00
2018-07-03T19:18:23.501Z,22.90
2018-07-03T19:20:52.122Z,22.80
2018-07-03T19:23:20.902Z,22.70
2018-07-03T19:25:49.526Z,22.60
2018-07-03T19:28:18.089Z,22.50
2018-07-03T19:30:46.704Z,22.30
2018-07-03T19:33:16.290Z,22.20
2018-07-03T19:35:45.173Z,22.20
2018-07-03T19:38:13.768Z,22.20
2018-07-03T19:40:42.452Z,22.30
2018-07-03T19:43:21.528Z,22.30
2018-07-03T19:45:51.362Z,22.20
2018-07-03T19:50:49.784Z,22.00
2018-07-03T19:53:18.392Z,21.90
2018-07-03T19:55:48.355Z,21.80
2018-07-03T19:58:17.219Z,21.80
2018-07-03T20:00:47.153Z,21.80
2018-07-03T20:05:44.026Z,21.60
2018-07-03T20:10:40.937Z,21.50
2018-07-03T20:13:11.864Z,21.50
2018-07-03T20:15:40.505Z,21.40
2018-07-03T20:18:10.341Z,21.30
2018-07-03T20:20:39.005Z,21.20
2018-07-03T20:23:07.584Z,21.10
2018-07-03T20:25:37.004Z,20.90
2018-07-03T20:28:05.952Z,20.80
2018-07-03T20:30:34.923Z,20.70
2018-07-03T20:33:03.583Z,20.60
2018-07-03T20:35:32.206Z,20.60
2018-07-03T20:38:02.185Z,20.70
2018-07-03T20:40:50.928Z,20.70
2018-07-03T20:43:19.736Z,20.70
2018-07-03T20:45:48.326Z,20.50
2018-07-03T20:48:16.933Z,20.40
2018-07-03T20:50:45.579Z,20.30
2018-07-03T20:53:14.185Z,20.30
2018-07-03T20:55:42.963Z,20.20
2018-07-03T20:58:11.596Z,20.20
2018-07-03T21:00:40.243Z,20.10
2018-07-03T21:03:09.009Z,20.10
2018-07-03T21:05:37.594Z,20.00
2018-07-03T21:08:06.436Z,20.10
2018-07-03T21:10:35.102Z,20.00
2018-07-03T21:13:03.692Z,20.00
2018-07-03T21:15:33.458Z,20.00
2018-07-03T21:18:02.037Z,20.10
2018-07-03T21:20:30.613Z,20.10
2018-07-03T21:22:59.212Z,20.00
2018-07-03T21:27:56.003Z,19.70
2018-07-03T21:30:24.560Z,19.60
2018-07-03T21:35:21.365Z,19.60
2018-07-03T21:37:49.980Z,19.60
2018-07-03T21:40:18.517Z,19.60
2018-07-03T21:42:47.133Z,19.70
2018-07-03T21:45:16.662Z,19.70
2018-07-03T21:47:45.291Z,19.80
2018-07-03T21:50:13.952Z,19.80
2018-07-03T21:52:42.492Z,19.80
2018-07-03T21:55:11.330Z,19.80
2018-07-03T21:57:39.884Z,19.80
2018-07-03T22:00:09.962Z,19.70
2018-07-03T22:02:45.082Z,19.60
2018-07-03T22:05:13.698Z,19.50
2018-07-03T22:07:42.265Z,19.40
2018-07-03T22:10:12.853Z,19.40
2018-07-03T22:12:41.459Z,19.30
2018-07-03T22:15:10.073Z,19.20
2018-07-03T22:17:38.725Z,19.10
2018-07-03T22:20:07.331Z,19.00
2018-07-03T22:22:35.916Z,19.00
2018-07-03T22:25:04.558Z,19.00
2018-07-03T22:27:33.246Z,19.10
2018-07-03T22:32:32.025Z,19.00
2018-07-03T22:35:00.670Z,19.00
2018-07-03T22:37:29.262Z,19.10
2018-07-03T22:39:57.876Z,19.00
2018-07-03T22:42:26.453Z,19.00
2018-07-03T22:45:01.820Z,19.00
2018-07-03T22:47:30.428Z,18.90
2018-07-03T22:49:59.884Z,18.90
2018-07-03T22:52:28.458Z,18.80
2018-07-03T22:54:57.967Z,18.70
2018-07-03T22:57:26.528Z,18.70
2018-07-03T22:59:55.206Z,18.80
2018-07-03T23:02:24.159Z,18.80
2018-07-03T23:04:52.818Z,18.70
2018-07-03T23:07:22.381Z,18.80
2018-07-03T23:09:51.029Z,18.80
2018-07-03T23:12:20.439Z,18.70
2018-07-03T23:14:50.852Z,18.80
2018-07-03T23:17:19.479Z,18.90
2018-07-03T23:19:48.950Z,18.90
2018-07-03T23:22:17.672Z,19.00
2018-07-03T23:24:46.244Z,18.90
2018-07-03T23:27:15.749Z,18.90
2018-07-03T23:29:44.369Z,18.90
2018-07-03T23:32:13.212Z,18.80
2018-07-03T23:34:42.322Z,18.60
2018-07-03T23:37:11.297Z,18.60
2018-07-03T23:39:39.915Z,18.50
2018-07-03T23:42:08.513Z,18.50
2018-07-03T23:44:37.097Z,18.50
2018-07-03T23:47:16.992Z,18.40
2018-07-03T23:49:56.841Z,18.40
2018-07-03T23:52:36.495Z,18.50
2018-07-03T23:55:16.312Z,18.50
2018-07-03T23:57:56.166Z,18.50
